Bookmark and Share
Track history (hours):
 

Drifting buoy 41609

Last reported at 2012-Dec-18 18:04 UTC. Time now 2014-Apr-23 15:29 UTC.
Position N 23°42' W 074°46'.
Warning: this ship's position is years out of date!

Water temperature 26.9 ° C

NotesDate/timePositionNaut miles runAvg speedWind from/ knotsBaromVisibWave heightAir tempDewpointWater temp
2012-Dec-18 18:04N 23°42' W 074°46'0 0.0 26.9
2012-Dec-18 13:46N 23°42' W 074°46'0 0.0 23.2
2012-Dec-18 06:47N 23°42' W 074°46'0 0.0 24.5
2012-Dec-18 06:44N 23°42' W 074°46'1 0.2 24.5
2012-Dec-17 23:42N 23°42' W 074°48'0 0.0
2012-Dec-17 18:13N 23°42' W 074°48'0 0.0 26.6
2012-Dec-17 14:13N 23°42' W 074°48'1 1.0 24.4
2012-Dec-17 13:40N 23°42' W 074°47'1 0.2 24.3
2012-Dec-17 09:44N 23°42' W 074°48'1 0.4 23.9
2012-Dec-17 07:31N 23°42' W 074°47'0 0.0
2012-Dec-17 06:56N 23°42' W 074°47'0 0.0 24.1
2012-Dec-17 01:41N 23°42' W 074°47'0 0.0 24.1
2012-Dec-17 01:06N 23°42' W 074°47'0 0.0
2012-Dec-16 21:16N 23°42' W 074°47'0 0.0 24.7
2012-Dec-16 18:26N 23°42' W 074°47'3 0.8 26.0
2012-Dec-16 14:32N 23°43' W 074°50'0 0.0 25.0
2012-Dec-16 13:53N 23°43' W 074°50'2 0.9 24.4
2012-Dec-16 11:16N 23°41' W 074°48'0 0.0
2012-Dec-16 07:44N 23°41' W 074°48'0 0.0 23.4
2012-Dec-16 07:06N 23°41' W 074°48'0 0.0 23.4
2012-Dec-16 02:02N 23°41' W 074°48'1 0.7 24.2
2012-Dec-16 01:16N 23°42' W 074°48'0 0.0
2012-Dec-16 01:13N 23°42' W 074°48'0 0.0 24.1
2012-Dec-15 21:42N 23°42' W 074°48'0 0.0 24.7
2012-Dec-15 19:04N 23°42' W 074°48'0 0.0
2012-Dec-15 18:32N 23°42' W 074°48'0 0.0 28.7
2012-Dec-15 14:53N 23°42' W 074°48'0 0.0 25.8
2012-Dec-15 14:01N 23°42' W 074°48'0 0.0
2012-Dec-15 11:43N 23°42' W 074°48'0 0.0 23.7
2012-Dec-15 02:22N 23°42' W 074°48'0 0.0 24.6
2012-Dec-15 01:25N 23°42' W 074°48'0 0.0 24.3
2012-Dec-14 23:17N 23°42' W 074°48'0 0.0 24.2
2012-Dec-14 19:20N 23°42' W 074°48'0 0.0 27.7
2012-Dec-14 12:05N 23°42' W 074°47'0 0.0 24.2
2012-Dec-14 09:15N 23°42' W 074°47'0 0.0 23.5
2012-Dec-14 08:02N 23°42' W 074°47'   23.6
2012-Dec-12 01:44N 23°42' W 074°50'0 0.0 24.3
2012-Dec-11 19:52N 23°42' W 074°50'0 0.0 26.7
2012-Dec-11 14:36N 23°42' W 074°50'0 0.0 24.6
2012-Dec-11 13:13N 23°42' W 074°50'0 0.0 24.7
2012-Dec-11 11:37N 23°42' W 074°50'0 0.0 25.3
2012-Dec-11 06:58N 23°42' W 074°50'0 0.0 25.2
2012-Dec-11 06:50N 23°42' W 074°50'0 0.0 25.2
2012-Dec-11 06:17N 23°42' W 074°50'0 0.0 25.3
2012-Dec-11 02:09N 23°42' W 074°50'1 0.7 25.1
2012-Dec-11 00:41N 23°41' W 074°49'0 0.0 24.9
2012-Dec-11 00:26N 23°41' W 074°49'2 1.2 24.9
2012-Dec-10 23:10N 23°42' W 074°47'0 0.1 25.0
2012-Dec-10 20:03N 23°42' W 074°47'0 0.0 29.9
2012-Dec-10 17:50N 23°42' W 074°47'2 0.6 37.0
2012-Dec-10 14:54N 23°41' W 074°45'2 1.5 32.6
2012-Dec-10 13:23N 23°42' W 074°48'0 0.0 24.4
2012-Dec-10 13:18N 23°42' W 074°48'0 0.0 24.4
2012-Dec-10 12:03N 23°42' W 074°48'0 0.0 24.7
2012-Dec-10 09:12N 23°42' W 074°48'1 0.3 24.8
2012-Dec-10 06:30N 23°42' W 074°47'0 0.0 24.8
2012-Dec-10 02:27N 23°42' W 074°47'1 0.6 24.9
2012-Dec-10 00:48N 23°42' W 074°48'0 0.0 24.8
2012-Dec-10 00:47N 23°42' W 074°48'0 0.0 24.8
2012-Dec-09 23:37N 23°42' W 074°48'0 0.0 24.8
2012-Dec-09 20:14N 23°42' W 074°48'1 9.9 28.2
2012-Dec-09 20:09N 23°42' W 074°47'0 0.0 28.2
2012-Dec-09 18:00N 23°42' W 074°47'0 0.0 36.8
2012-Dec-09 17:54N 23°42' W 074°47'0 0.0 36.8
2012-Dec-09 13:38N 23°42' W 074°47'0 0.0 25.0
2012-Dec-09 13:36N 23°42' W 074°47'0 3.9 25.0
2012-Dec-09 13:29N 23°42' W 074°47'0 0.0
2012-Dec-09 12:25N 23°42' W 074°47'1 0.3 24.3
2012-Dec-09 09:38N 23°43' W 074°48'1 0.4 25.4
2012-Dec-09 07:18N 23°42' W 074°49'0 0.1 24.6
2012-Dec-09 06:43N 23°42' W 074°48'112.6 24.8
2012-Dec-09 06:40N 23°42' W 074°48'1 0.7 24.8
2012-Dec-09 04:59N 23°42' W 074°47'0 0.0 25.0
2012-Dec-09 01:03N 23°42' W 074°47'0 0.0 24.7
2012-Dec-09 00:01N 23°42' W 074°47'0 0.0 24.6
2012-Dec-08 22:19N 23°42' W 074°47'0 0.0 24.7
2012-Dec-08 21:15N 23°42' W 074°47'0 0.0 25.1
2012-Dec-08 18:45N 23°42' W 074°47'0 0.0 27.6
2012-Dec-08 18:12N 23°42' W 074°47'   30.7

Dump ship's entire track history

sailing weather and tide predictions

Buoy 41609